14  °C
Temperature
11  °C
  Dewpoint
   Humidity
Temp | Dewpoint | Humidity
11  km/h
Wind Speed
7  mph
Wind Speed
6  kts
Wind Speed
220°
South West

Wind Speed
Clear
Conditions
Pressure 1024.92 (hPa) - 30.27 (in)
Visibility 6.2 (mi) - 10.0 (km)

Current Conditions
EHRD
Location 6km (3.2mi)
Metar :EHRD 222155Z AUTO 22006KT 9999 NSC 14/11 Q1025 NOSIG
Thu 22nd August 23:55 pm

Airport
  Metar Aviation API Data Provided by https://www.checkwx.com/ CSS/SVG/PHP scripts by weather34.com © 2015-2019